Time;durP1;ratioP1;P1;durP2;ratioP2;P2;SDS_P1;SDS_P2;PMS_P1;PMS_P2;Temp;Humidity;BMP_temperature;BMP_pressure;BME280_temperature;BME280_humidity;BME280_pressure;Samples;Min_cycle;Max_cycle;Signal;HPM_P1;HPM_P2
2023/05/08 00:00:41;;;;;;;9.47;9.17;;;13.80;99.90;;;;;;5106737;28;20249;-80
2023/05/08 00:03:08;;;;;;;9.70;9.40;;;13.80;99.90;;;;;;5111458;28;20233;-79
2023/05/08 00:05:36;;;;;;;9.70;9.40;;;13.80;99.90;;;;;;5103910;28;20260;-79
2023/05/08 00:08:03;;;;;;;9.97;9.67;;;13.70;99.90;;;;;;5103176;28;20236;-79
2023/05/08 00:10:31;;;;;;;10.03;9.73;;;13.70;99.90;;;;;;5102826;28;20225;-80
2023/05/08 00:12:59;;;;;;;10.07;9.77;;;13.70;99.90;;;;;;5102943;28;20301;-79
2023/05/08 00:15:28;;;;;;;10.00;9.70;;;13.60;99.90;;;;;;5102971;28;20251;-80
2023/05/08 00:17:56;;;;;;;10.10;9.80;;;13.60;99.90;;;;;;5103879;28;20226;-79
2023/05/08 00:20:23;;;;;;;9.77;9.47;;;13.50;99.90;;;;;;5103221;28;20244;-79
2023/05/08 00:22:51;;;;;;;9.90;9.60;;;13.50;99.90;;;;;;5103334;28;20287;-80
2023/05/08 00:25:19;;;;;;;9.70;9.40;;;13.50;99.90;;;;;;5102902;28;20297;-79
2023/05/08 00:27:46;;;;;;;9.87;9.57;;;13.50;99.90;;;;;;5099570;28;20244;-79
2023/05/08 00:30:14;;;;;;;9.80;9.50;;;13.50;99.90;;;;;;5098395;28;20245;-79
2023/05/08 00:32:47;;;;;;;9.70;9.40;;;13.50;99.90;;;;;;5082081;28;20238;-79
2023/05/08 00:35:15;;;;;;;9.67;9.37;;;13.50;99.90;;;;;;5082131;28;20245;-79
2023/05/08 00:37:42;;;;;;;9.97;9.67;;;13.40;99.90;;;;;;5082551;28;20211;-79
2023/05/08 00:40:11;;;;;;;10.03;9.73;;;13.40;99.90;;;;;;5082311;28;20617;-79
2023/05/08 00:42:39;;;;;;;9.90;9.60;;;13.30;99.90;;;;;;5082862;28;20236;-79
2023/05/08 00:45:08;;;;;;;9.80;9.50;;;13.20;99.90;;;;;;5083311;28;20218;-79
2023/05/08 00:47:36;;;;;;;10.10;9.80;;;13.20;99.90;;;;;;5085791;28;20266;-79
2023/05/08 00:50:07;;;;;;;10.20;9.90;;;13.20;99.90;;;;;;5083362;28;20233;-79
2023/05/08 00:52:34;;;;;;;10.30;10.00;;;13.10;99.90;;;;;;5083367;28;20234;-79
2023/05/08 00:55:03;;;;;;;10.00;9.70;;;13.10;99.90;;;;;;5082725;28;20230;-79
2023/05/08 00:57:34;;;;;;;10.07;9.77;;;13.10;99.90;;;;;;5082522;28;20667;-79
2023/05/08 01:00:04;;;;;;;9.77;9.47;;;13.10;99.90;;;;;;5084194;28;20230;-79
2023/05/08 01:02:32;;;;;;;10.03;9.73;;;13.10;99.90;;;;;;5088559;28;20226;-79
2023/05/08 01:05:01;;;;;;;10.00;9.70;;;13.00;99.90;;;;;;5081930;28;20316;-79
2023/05/08 01:07:31;;;;;;;10.10;9.80;;;12.90;99.90;;;;;;5081446;28;20246;-79
2023/05/08 01:09:59;;;;;;;10.07;9.77;;;12.90;99.90;;;;;;5082205;28;20214;-79
2023/05/08 01:12:50;;;;;;;10.10;9.80;;;12.90;99.90;;;;;;5082831;28;20237;-79
2023/05/08 01:15:24;;;;;;;10.07;9.77;;;12.90;99.90;;;;;;5082226;28;20236;-79
2023/05/08 01:18:04;;;;;;;10.17;9.87;;;13.00;99.90;;;;;;5095035;28;20221;-79
2023/05/08 01:20:42;;;;;;;10.20;9.90;;;12.90;99.90;;;;;;5102129;28;20229;-79
2023/05/08 01:23:48;;;;;;;10.30;10.00;;;12.90;99.90;;;;;;5101587;28;20316;-80
2023/05/08 01:26:42;;;;;;;9.97;9.67;;;12.90;99.90;;;;;;5099572;28;20289;-79
2023/05/08 01:29:59;;;;;;;10.33;10.03;;;12.90;99.90;;;;;;5102221;28;20261;-79
2023/05/08 01:32:33;;;;;;;10.30;10.00;;;12.90;99.90;;;;;;5101866;28;20237;-79
2023/05/08 01:35:19;;;;;;;10.20;9.90;;;12.80;99.90;;;;;;5101661;28;20316;-79
2023/05/08 01:37:56;;;;;;;10.40;10.10;;;12.70;99.90;;;;;;5101703;28;20240;-79
2023/05/08 01:40:34;;;;;;;10.10;9.80;;;12.80;99.90;;;;;;5101801;28;20726;-79
2023/05/08 01:43:14;;;;;;;10.23;9.93;;;12.70;99.90;;;;;;5101905;28;20292;-79
2023/05/08 01:45:47;;;;;;;10.20;9.90;;;12.70;99.90;;;;;;5101776;28;20245;-79
2023/05/08 01:48:20;;;;;;;10.00;9.70;;;12.70;99.90;;;;;;5101501;28;20222;-79
2023/05/08 01:50:55;;;;;;;10.00;9.70;;;12.60;99.90;;;;;;5102197;28;20224;-79
2023/05/08 01:53:29;;;;;;;9.97;9.67;;;12.70;99.90;;;;;;5101591;28;20239;-79
2023/05/08 01:56:01;;;;;;;10.07;9.77;;;12.70;99.90;;;;;;5101603;28;20229;-79
2023/05/08 01:58:31;;;;;;;9.93;9.63;;;12.70;99.90;;;;;;5102728;28;20229;-79
2023/05/08 02:01:02;;;;;;;10.00;9.70;;;12.70;99.90;;;;;;5104786;28;20222;-79
2023/05/08 02:03:33;;;;;;;10.00;9.70;;;12.70;99.90;;;;;;5104251;28;20237;-79
2023/05/08 02:06:02;;;;;;;10.00;9.70;;;12.70;99.90;;;;;;5105376;28;20225;-79
2023/05/08 02:08:31;;;;;;;10.33;10.03;;;12.70;99.90;;;;;;5104531;28;20320;-79
2023/05/08 02:11:01;;;;;;;10.40;10.10;;;12.70;99.90;;;;;;5104348;28;20320;-79
2023/05/08 02:13:31;;;;;;;10.27;9.97;;;12.60;99.90;;;;;;5105276;28;20289;-79
2023/05/08 02:15:59;;;;;;;10.20;9.90;;;12.50;99.90;;;;;;5105523;28;20225;-79
2023/05/08 02:18:32;;;;;;;9.90;9.60;;;12.60;99.90;;;;;;5104702;28;20284;-79
2023/05/08 02:21:03;;;;;;;10.07;9.77;;;12.50;99.90;;;;;;5105069;28;20289;-79
2023/05/08 02:23:31;;;;;;;10.17;9.87;;;12.50;99.90;;;;;;5105602;28;20255;-80
2023/05/08 02:26:00;;;;;;;9.97;9.67;;;12.50;99.90;;;;;;5107007;28;20233;-78
2023/05/08 02:28:29;;;;;;;9.80;9.50;;;12.50;99.90;;;;;;5106115;28;20273;-79
2023/05/08 02:30:58;;;;;;;10.10;9.80;;;12.40;99.90;;;;;;5104898;28;20217;-79
2023/05/08 02:33:28;;;;;;;9.90;9.60;;;12.40;99.90;;;;;;5104798;28;20233;-79
2023/05/08 02:35:58;;;;;;;9.90;9.60;;;12.30;99.90;;;;;;5104365;28;20245;-81
2023/05/08 02:38:27;;;;;;;9.80;9.50;;;12.30;99.90;;;;;;5104603;28;20225;-79
2023/05/08 02:41:01;;;;;;;9.60;9.30;;;12.30;99.90;;;;;;5104157;28;20230;-79
2023/05/08 02:43:29;;;;;;;9.70;9.40;;;12.30;99.90;;;;;;5104086;28;20237;-79
2023/05/08 02:46:10;;;;;;;9.83;9.53;;;12.30;99.90;;;;;;5104445;28;20765;-79
2023/05/08 02:48:44;;;;;;;10.20;9.90;;;12.30;99.90;;;;;;5103566;28;20229;-79
2023/05/08 02:51:26;;;;;;;10.00;9.70;;;12.20;99.90;;;;;;5104034;28;20312;-79
2023/05/08 02:53:59;;;;;;;10.03;9.73;;;12.20;99.90;;;;;;5105882;28;20237;-79
2023/05/08 02:56:36;;;;;;;9.80;9.50;;;12.20;99.90;;;;;;5104232;28;20229;-79
2023/05/08 02:59:17;;;;;;;9.80;9.50;;;12.20;99.90;;;;;;5103574;28;20263;-79
2023/05/08 03:01:52;;;;;;;10.07;9.77;;;12.10;99.90;;;;;;5104110;28;20212;-79
2023/05/08 03:04:31;;;;;;;9.73;9.43;;;12.10;99.90;;;;;;5103791;28;20236;-79
2023/05/08 03:07:03;;;;;;;9.90;9.60;;;12.10;99.90;;;;;;5103999;28;21052;-79
2023/05/08 03:09:39;;;;;;;10.00;9.70;;;12.10;99.90;;;;;;5103194;28;20313;-79
2023/05/08 03:12:15;;;;;;;9.90;9.60;;;12.10;99.90;;;;;;5104007;28;20240;-79
2023/05/08 03:14:47;;;;;;;9.77;9.47;;;12.10;99.90;;;;;;5108673;28;20245;-79
2023/05/08 03:17:18;;;;;;;9.70;9.40;;;12.10;99.90;;;;;;5110399;28;20296;-79
2023/05/08 03:19:50;;;;;;;9.90;9.60;;;12.00;99.90;;;;;;5105629;28;20240;-79
2023/05/08 03:22:21;;;;;;;9.90;9.60;;;12.00;99.90;;;;;;5105298;28;20229;-79
2023/05/08 03:24:50;;;;;;;10.07;9.77;;;12.00;99.90;;;;;;5112694;28;20248;-79
2023/05/08 03:27:19;;;;;;;9.93;9.63;;;12.00;99.90;;;;;;5117966;28;20256;-79
2023/05/08 03:29:49;;;;;;;10.60;10.30;;;11.90;99.90;;;;;;5103697;28;20229;-79
2023/05/08 03:32:18;;;;;;;10.50;10.20;;;11.90;99.90;;;;;;5103608;28;20291;-78
2023/05/08 03:34:48;;;;;;;10.47;10.17;;;11.80;99.90;;;;;;5104640;28;20256;-79
2023/05/08 03:37:15;;;;;;;10.63;10.33;;;11.80;99.90;;;;;;5103724;28;20234;-79
2023/05/08 03:39:45;;;;;;;10.37;10.07;;;11.80;99.90;;;;;;5103885;28;21123;-79
2023/05/08 03:42:20;;;;;;;10.40;10.10;;;11.80;99.90;;;;;;5103990;28;20222;-78
2023/05/08 03:44:50;;;;;;;10.43;10.13;;;11.70;99.90;;;;;;5103384;28;20241;-78
2023/05/08 03:47:18;;;;;;;10.60;10.30;;;11.70;99.90;;;;;;5103642;28;20233;-79
2023/05/08 03:49:48;;;;;;;10.20;9.90;;;11.70;99.90;;;;;;5103389;28;20218;-79
2023/05/08 03:52:16;;;;;;;10.30;10.00;;;11.70;99.90;;;;;;5103966;28;20248;-79
2023/05/08 03:54:46;;;;;;;10.60;10.30;;;11.70;99.90;;;;;;5103448;28;20237;-79
2023/05/08 03:57:14;;;;;;;10.47;10.17;;;11.70;99.90;;;;;;5103994;28;20240;-79
2023/05/08 03:59:52;;;;;;;10.50;10.20;;;11.70;99.90;;;;;;5103878;28;20290;-79
2023/05/08 04:02:28;;;;;;;10.57;10.27;;;11.70;99.90;;;;;;5101391;28;20232;-79
2023/05/08 04:05:14;;;;;;;10.70;10.40;;;11.70;99.90;;;;;;5115540;22;20232;-85
2023/05/08 04:07:58;;;;;;;10.50;10.20;;;11.70;99.90;;;;;;5103258;28;20324;-85
2023/05/08 04:10:36;;;;;;;10.40;10.10;;;11.60;99.90;;;;;;5107007;28;20316;-85
2023/05/08 04:13:16;;;;;;;10.70;10.40;;;11.70;99.90;;;;;;5104583;28;20285;-87
2023/05/08 04:15:55;;;;;;;10.60;10.30;;;11.70;99.90;;;;;;5101119;28;20260;-86
2023/05/08 04:18:35;;;;;;;10.50;10.20;;;11.70;99.90;;;;;;5101616;28;20221;-85
2023/05/08 04:27:23;;;;;;;10.40;10.10;;;11.80;99.90;;;;;;5101934;28;20244;-86
2023/05/08 04:30:21;;;;;;;10.13;9.83;;;11.80;99.90;;;;;;5100696;28;20233;-86
2023/05/08 04:32:59;;;;;;;10.00;9.70;;;11.70;99.90;;;;;;5101782;28;20299;-86
2023/05/08 04:35:44;;;;;;;10.17;9.87;;;11.70;99.90;;;;;;5101809;28;20224;-85
2023/05/08 04:38:21;;;;;;;10.10;9.80;;;11.70;99.90;;;;;;5101700;28;20237;-85
2023/05/08 04:41:01;;;;;;;10.40;10.10;;;11.60;99.90;;;;;;5101955;28;20225;-86
2023/05/08 04:43:44;;;;;;;10.50;10.20;;;11.60;99.90;;;;;;5102006;28;20225;-86
2023/05/08 04:46:14;;;;;;;10.33;10.03;;;11.60;99.90;;;;;;5102022;28;20233;-85
2023/05/08 04:51:47;;;;;;;10.50;10.20;;;11.60;99.90;;;;;;5090734;28;20226;-86
2023/05/08 04:54:26;;;;;;;10.43;10.13;;;11.60;99.90;;;;;;5080874;28;20237;-85
2023/05/08 04:57:13;;;;;;;;;;;;;;;;;;;;;
2023/05/08 04:59:56;;;;;;;10.30;10.00;;;11.60;99.90;;;;;;5081584;28;20225;-85
2023/05/08 05:02:40;;;;;;;10.47;10.17;;;11.60;99.90;;;;;;5081362;28;20329;-86
2023/05/08 05:05:27;;;;;;;10.03;9.73;;;11.70;99.90;;;;;;5081167;28;20222;-86
2023/05/08 05:10:44;;;;;;;10.37;10.07;;;11.70;99.90;;;;;;5095081;28;20272;-85
2023/05/08 05:13:12;;;;;;;10.73;10.43;;;11.70;99.90;;;;;;5098810;28;20234;-87
2023/05/08 05:15:51;;;;;;;10.37;10.07;;;11.70;99.90;;;;;;5093147;28;20244;-87
2023/05/08 05:18:19;;;;;;;10.43;10.13;;;11.70;99.90;;;;;;5080912;28;20441;-86
2023/05/08 05:20:48;;;;;;;10.23;9.93;;;11.70;99.90;;;;;;5099052;28;20229;-85
2023/05/08 05:23:19;;;;;;;10.20;9.90;;;11.80;99.90;;;;;;5100305;28;20235;-85
2023/05/08 05:32:24;;;;;;;10.20;9.90;;;11.90;99.90;;;;;;5008710;28;20232;-86
2023/05/08 05:34:55;;;;;;;10.23;9.93;;;11.90;99.90;;;;;;5102406;28;20251;-86
2023/05/08 05:37:27;;;;;;;10.20;9.90;;;11.90;99.90;;;;;;5103650;28;20229;-86
2023/05/08 05:40:12;;;;;;;10.07;9.77;;;12.00;99.90;;;;;;5102654;28;20260;-86
2023/05/08 05:46:42;;;;;;;10.00;9.70;;;12.20;99.90;;;;;;5050033;28;20295;-86
2023/05/08 05:55:38;;;;;;;10.00;9.70;;;12.20;99.90;;;;;;5110704;27;20245;-86
2023/05/08 05:58:16;;;;;;;10.00;9.70;;;12.30;99.90;;;;;;5102819;27;20226;-86
2023/05/08 06:08:31;;;;;;;10.60;10.30;;;12.40;99.90;;;;;;4984262;28;20348;-86
2023/05/08 06:12:24;;;;;;;;;;;;;;;;;;;;;
2023/05/08 06:15:32;;;;;;;10.27;9.97;;;12.50;99.90;;;;;;5102603;28;20324;-85
2023/05/08 06:18:17;;;;;;;10.23;9.93;;;12.60;99.90;;;;;;5000756;28;21062;-85
2023/05/08 06:20:47;;;;;;;10.90;10.60;;;12.60;99.90;;;;;;5030732;28;20268;-84
2023/05/08 06:23:16;;;;;;;10.70;10.40;;;12.60;99.90;;;;;;5099597;28;20248;-84
2023/05/08 06:25:44;;;;;;;10.60;10.30;;;12.70;99.90;;;;;;5104425;28;20225;-84
2023/05/08 06:28:12;;;;;;;10.70;10.40;;;12.80;99.90;;;;;;5110311;28;20228;-86
2023/05/08 06:30:40;;;;;;;10.60;10.30;;;13.00;99.90;;;;;;5105090;28;20237;-83
2023/05/08 06:33:11;;;;;;;11.00;10.70;;;13.10;99.90;;;;;;5114493;28;20217;-84
2023/05/08 06:35:41;;;;;;;10.90;10.60;;;13.20;99.90;;;;;;5100264;28;20233;-84
2023/05/08 06:38:13;;;;;;;10.90;10.60;;;13.30;99.90;;;;;;5096738;28;20237;-85
2023/05/08 06:40:44;;;;;;;10.60;10.30;;;13.50;99.90;;;;;;5101215;28;20230;-84
2023/05/08 06:43:12;;;;;;;10.93;10.63;;;13.60;99.90;;;;;;5093400;28;20314;-85
2023/05/08 06:45:40;;;;;;;10.90;10.60;;;13.70;99.90;;;;;;5102781;28;20341;-85
2023/05/08 06:52:32;;;;;;;10.80;10.50;;;13.80;99.90;;;;;;5090463;28;20337;-83
2023/05/08 06:59:13;;;;;;;10.67;10.37;;;14.10;99.90;;;;;;5017577;28;20236;-84
2023/05/08 07:46:16;;;;;;;10.60;10.30;;;15.00;99.90;;;;;;5084741;22;20241;-84
2023/05/08 10:10:04;;;;;;;9.50;9.20;;;18.40;99.90;;;;;;5102784;28;20311;-78
2023/05/08 10:12:33;;;;;;;9.23;8.93;;;18.40;99.90;;;;;;5108497;28;20287;-81
2023/05/08 10:15:05;;;;;;;9.40;9.10;;;18.50;99.90;;;;;;5104040;28;20289;-80
2023/05/08 10:17:43;;;;;;;9.85;9.55;;;18.50;99.90;;;;;;5085808;28;20245;-81
2023/05/08 10:20:14;;;;;;;9.65;9.35;;;18.60;99.90;;;;;;5090118;28;20265;-80
2023/05/08 10:22:44;;;;;;;10.00;9.70;;;18.60;99.90;;;;;;5091981;28;20268;-80
2023/05/08 10:25:18;;;;;;;10.00;9.70;;;18.60;99.90;;;;;;5093564;28;20341;-79
2023/05/08 10:27:53;;;;;;;9.70;9.40;;;18.90;99.90;;;;;;5095006;28;20228;-80
2023/05/08 10:30:25;;;;;;;9.90;9.60;;;18.90;99.90;;;;;;5097058;28;21016;-79
2023/05/08 10:32:55;;;;;;;9.73;9.43;;;19.10;99.90;;;;;;5099323;28;20244;-80
2023/05/08 10:35:23;;;;;;;9.82;9.52;;;19.10;99.90;;;;;;5099079;28;20242;-79
2023/05/08 10:37:52;;;;;;;9.27;8.98;;;19.20;99.90;;;;;;5099211;28;20234;-79
2023/05/08 10:40:23;;;;;;;9.20;8.90;;;19.20;99.90;;;;;;5098818;28;20214;-79
2023/05/08 10:42:52;;;;;;;9.40;9.10;;;19.00;99.90;;;;;;5098830;28;20245;-79
2023/05/08 10:45:20;;;;;;;9.50;9.20;;;19.10;99.90;;;;;;5099202;28;20253;-79
2023/05/08 10:47:59;;;;;;;9.70;9.40;;;19.30;99.90;;;;;;5099931;28;20232;-79
2023/05/08 10:50:40;;;;;;;9.20;8.90;;;19.50;99.90;;;;;;5099230;28;20290;-79
2023/05/08 10:53:18;;;;;;;9.40;9.10;;;19.50;99.90;;;;;;5093846;28;20286;-79
2023/05/08 10:55:51;;;;;;;9.35;9.05;;;19.40;99.90;;;;;;5091939;28;20238;-81
2023/05/08 10:58:31;;;;;;;9.90;9.60;;;19.40;99.90;;;;;;5092316;28;20226;-79
2023/05/08 11:01:13;;;;;;;9.80;9.50;;;19.60;99.90;;;;;;5086523;28;20249;-79
2023/05/08 11:03:44;;;;;;;9.82;9.52;;;19.80;99.90;;;;;;5090417;28;20224;-80
2023/05/08 11:06:13;;;;;;;9.85;9.55;;;19.80;99.90;;;;;;5098757;28;20277;-80
2023/05/08 11:08:48;;;;;;;10.20;9.90;;;19.90;99.90;;;;;;5098170;28;20234;-79
2023/05/08 11:11:28;;;;;;;9.73;9.43;;;20.00;99.90;;;;;;5098090;28;20241;-79
2023/05/08 11:14:09;;;;;;;9.75;9.45;;;20.10;99.90;;;;;;5088723;28;20240;-80
2023/05/08 11:17:09;;;;;;;9.45;9.15;;;20.20;99.90;;;;;;5088180;28;20233;-80
2023/05/08 11:19:38;;;;;;;9.60;9.30;;;20.00;99.90;;;;;;5087317;28;20236;-81
2023/05/08 11:22:25;;;;;;;9.90;9.60;;;20.00;99.90;;;;;;5091931;28;20292;-80
2023/05/08 11:25:02;;;;;;;9.80;9.50;;;20.10;99.90;;;;;;5089189;28;20245;-80
2023/05/08 11:27:41;;;;;;;10.23;9.93;;;20.30;99.90;;;;;;5088190;28;20229;-81
2023/05/08 11:30:34;;;;;;;10.07;9.77;;;20.40;99.90;;;;;;5087863;28;20222;-81
2023/05/08 11:33:16;;;;;;;10.20;9.90;;;20.30;99.90;;;;;;5066528;28;20262;-81
2023/05/08 11:35:52;;;;;;;9.85;9.55;;;20.10;99.90;;;;;;5064830;28;20312;-80
2023/05/08 11:38:29;;;;;;;9.95;9.65;;;20.00;99.90;;;;;;5066490;28;20234;-81
2023/05/08 11:41:03;;;;;;;9.90;9.60;;;20.10;99.90;;;;;;5065966;28;20237;-80
2023/05/08 11:44:18;;;;;;;9.70;9.40;;;20.00;99.90;;;;;;5065799;28;20234;-80
2023/05/08 11:46:51;;;;;;;10.50;10.20;;;19.90;99.90;;;;;;5065111;28;20330;-81
2023/05/08 11:49:21;;;;;;;10.10;9.80;;;19.70;99.90;;;;;;5063872;28;20223;-79
2023/05/08 11:51:54;;;;;;;9.90;9.60;;;19.60;99.90;;;;;;5076534;28;20273;-80
2023/05/08 11:54:22;;;;;;;9.70;9.40;;;19.60;99.90;;;;;;5084549;28;20226;-79
2023/05/08 11:56:52;;;;;;;9.70;9.40;;;19.80;99.90;;;;;;5078628;28;20268;-80
2023/05/08 11:59:22;;;;;;;9.48;9.18;;;19.80;99.90;;;;;;5086620;28;20238;-80
2023/05/08 12:01:50;;;;;;;9.60;9.30;;;20.00;99.90;;;;;;5086295;28;20270;-82
2023/05/08 12:04:18;;;;;;;9.75;9.45;;;20.20;99.90;;;;;;5086929;28;20319;-79
2023/05/08 12:06:47;;;;;;;9.57;9.27;;;20.50;99.90;;;;;;5082495;28;20337;-79
2023/05/08 12:09:16;;;;;;;9.57;9.27;;;20.60;99.90;;;;;;5087171;28;20423;-79
2023/05/08 12:11:45;;;;;;;9.70;9.40;;;20.70;99.90;;;;;;5086721;28;20246;-79
2023/05/08 12:14:13;;;;;;;9.70;9.40;;;20.60;99.90;;;;;;5083471;28;20238;-78
2023/05/08 12:16:43;;;;;;;9.70;9.40;;;20.50;99.90;;;;;;5073296;28;20317;-78
2023/05/08 12:19:11;;;;;;;9.57;9.27;;;20.40;99.90;;;;;;5066256;28;20226;-79
2023/05/08 12:21:39;;;;;;;9.50;9.20;;;20.50;99.90;;;;;;5067193;28;20256;-79
2023/05/08 12:24:09;;;;;;;9.65;9.35;;;20.20;99.90;;;;;;5066298;28;20325;-80
2023/05/08 12:26:38;;;;;;;9.60;9.30;;;20.00;99.90;;;;;;5065855;28;20237;-80
2023/05/08 12:29:07;;;;;;;9.43;9.13;;;19.80;99.90;;;;;;5065559;28;20325;-79
2023/05/08 12:31:35;;;;;;;9.48;9.18;;;19.80;99.90;;;;;;5065118;28;20297;-81
2023/05/08 12:34:09;;;;;;;9.55;9.25;;;19.90;99.90;;;;;;5063517;28;20318;-80
2023/05/08 12:36:37;;;;;;;9.50;9.20;;;20.00;99.90;;;;;;5063321;28;20245;-79
2023/05/08 12:39:13;;;;;;;9.80;9.50;;;20.10;99.90;;;;;;5065316;28;20282;-79
2023/05/08 12:41:50;;;;;;;9.95;9.65;;;20.10;99.90;;;;;;5065202;28;20230;-79
2023/05/08 12:44:23;;;;;;;9.60;9.30;;;20.40;99.90;;;;;;5064837;28;20285;-79
2023/05/08 12:46:53;;;;;;;9.52;9.23;;;20.50;99.90;;;;;;5065373;28;20325;-80
2023/05/08 12:49:38;;;;;;;9.40;9.10;;;20.40;99.90;;;;;;5072546;28;20230;-79
2023/05/08 12:52:08;;;;;;;9.43;9.13;;;20.40;99.90;;;;;;5084750;28;20229;-80
2023/05/08 12:54:38;;;;;;;9.55;9.25;;;20.60;99.90;;;;;;5076513;28;20261;-80
2023/05/08 12:57:13;;;;;;;9.65;9.35;;;20.70;99.90;;;;;;5079922;28;20333;-80
2023/05/08 12:59:42;;;;;;;9.88;9.57;;;21.00;99.90;;;;;;5085674;28;20228;-80
2023/05/08 13:02:15;;;;;;;9.85;9.55;;;21.20;99.90;;;;;;5084348;28;20261;-81
2023/05/08 13:04:45;;;;;;;9.85;9.55;;;21.30;99.90;;;;;;5083825;28;20256;-79
2023/05/08 13:07:13;;;;;;;9.60;9.30;;;21.30;99.90;;;;;;5084699;28;20355;-80
2023/05/08 13:09:40;;;;;;;9.55;9.25;;;21.30;99.90;;;;;;5084411;28;20222;-80
2023/05/08 13:12:08;;;;;;;10.40;10.10;;;21.30;99.90;;;;;;5083971;28;20236;-80
2023/05/08 13:14:36;;;;;;;10.50;10.20;;;21.40;99.90;;;;;;5084482;28;20272;-80
2023/05/08 13:17:03;;;;;;;10.30;10.00;;;21.50;99.90;;;;;;5085086;28;20234;-80
2023/05/08 13:19:32;;;;;;;10.10;9.80;;;21.30;99.90;;;;;;5083344;28;20295;-81
2023/05/08 13:22:01;;;;;;;10.20;9.90;;;21.20;99.90;;;;;;5084424;28;20254;-80
2023/05/08 13:24:28;;;;;;;9.95;9.65;;;21.10;99.90;;;;;;5084062;28;20252;-80
2023/05/08 13:26:56;;;;;;;9.55;9.25;;;21.20;99.90;;;;;;5083823;28;20249;-79
2023/05/08 13:29:24;;;;;;;10.20;9.90;;;21.30;99.90;;;;;;5083451;28;20325;-79
2023/05/08 13:31:52;;;;;;;9.73;9.43;;;21.20;99.90;;;;;;5084749;28;20214;-79
2023/05/08 13:34:19;;;;;;;9.40;9.10;;;21.40;99.90;;;;;;5084965;28;20234;-81
2023/05/08 13:36:47;;;;;;;9.18;8.93;;;21.70;99.90;;;;;;5085295;28;20246;-81
2023/05/08 13:39:16;;;;;;;9.60;9.30;;;21.70;99.90;;;;;;5084702;28;20294;-80
2023/05/08 13:41:44;;;;;;;9.23;8.93;;;21.70;99.90;;;;;;5084207;28;20231;-80
2023/05/08 13:44:11;;;;;;;9.80;9.50;;;21.80;99.90;;;;;;5090568;28;20218;-78
2023/05/08 13:46:39;;;;;;;9.43;9.13;;;21.70;99.90;;;;;;5097891;28;20214;-79
2023/05/08 13:49:07;;;;;;;9.90;9.60;;;21.70;99.90;;;;;;5082895;28;20240;-80
2023/05/08 13:51:34;;;;;;;9.32;9.02;;;21.70;99.90;;;;;;5083942;28;20230;-80
2023/05/08 13:54:02;;;;;;;9.48;9.18;;;21.50;99.90;;;;;;5085249;28;20230;-80
2023/05/08 13:56:34;;;;;;;9.45;9.15;;;21.10;99.90;;;;;;5086685;28;21087;-80
2023/05/08 13:59:02;;;;;;;9.60;9.30;;;21.00;99.90;;;;;;5087693;28;21116;-80
2023/05/08 14:01:30;;;;;;;9.50;9.20;;;21.10;99.90;;;;;;5090266;28;20286;-79
2023/05/08 14:03:58;;;;;;;9.45;9.15;;;21.30;99.90;;;;;;5086408;28;20223;-79
2023/05/08 14:06:25;;;;;;;9.73;9.43;;;21.30;99.90;;;;;;5087733;28;20249;-80
2023/05/08 14:08:53;;;;;;;9.90;9.60;;;21.40;99.90;;;;;;5088034;28;20319;-81
2023/05/08 14:11:21;;;;;;;9.93;9.63;;;21.50;99.90;;;;;;5089219;28;20226;-80
2023/05/08 14:13:50;;;;;;;10.30;10.00;;;21.50;99.90;;;;;;5089076;28;20253;-81
2023/05/08 14:16:18;;;;;;;9.77;9.48;;;21.60;99.90;;;;;;5088661;28;20244;-80
2023/05/08 14:18:45;;;;;;;10.20;9.90;;;21.30;99.90;;;;;;5088377;28;20293;-81
2023/05/08 14:21:13;;;;;;;9.80;9.50;;;21.40;99.90;;;;;;5086958;28;20241;-81
2023/05/08 14:23:42;;;;;;;9.80;9.50;;;21.60;99.90;;;;;;5087480;28;20268;-81
2023/05/08 14:26:10;;;;;;;10.10;9.80;;;21.50;99.90;;;;;;5087209;28;20246;-81
2023/05/08 14:28:37;;;;;;;10.23;9.93;;;21.40;99.90;;;;;;5088247;28;20281;-79
2023/05/08 14:31:06;;;;;;;10.00;9.70;;;21.50;99.90;;;;;;5092634;28;20230;-78
2023/05/08 14:33:34;;;;;;;9.80;9.50;;;21.30;99.90;;;;;;5094644;28;20302;-78
2023/05/08 14:36:02;;;;;;;9.80;9.50;;;21.20;99.90;;;;;;5090594;28;20283;-79
2023/05/08 14:38:29;;;;;;;9.73;9.43;;;21.30;99.90;;;;;;5084484;28;20241;-79
2023/05/08 14:40:57;;;;;;;9.77;9.48;;;21.50;99.90;;;;;;5084086;28;20236;-78
2023/05/08 14:43:26;;;;;;;9.95;9.65;;;21.70;99.90;;;;;;5084925;28;20265;-81
2023/05/08 14:45:53;;;;;;;10.05;9.75;;;21.80;99.90;;;;;;5091366;28;20273;-80
2023/05/08 14:48:26;;;;;;;10.00;9.70;;;21.70;99.90;;;;;;5090455;28;20234;-80
2023/05/08 14:50:53;;;;;;;10.00;9.70;;;21.50;99.90;;;;;;5090731;28;20279;-79
2023/05/08 14:53:21;;;;;;;9.90;9.60;;;21.60;99.90;;;;;;5091692;28;20236;-79
2023/05/08 14:55:48;;;;;;;9.70;9.40;;;21.60;99.90;;;;;;5084779;28;20230;-81
2023/05/08 14:58:16;;;;;;;9.68;9.38;;;21.30;99.90;;;;;;5085681;28;20234;-81
2023/05/08 15:00:44;;;;;;;9.77;9.48;;;21.20;99.90;;;;;;5084069;28;20257;-81
2023/05/08 15:03:11;;;;;;;9.60;9.30;;;21.20;99.90;;;;;;5081302;28;20298;-81
2023/05/08 15:05:40;;;;;;;9.27;8.98;;;21.00;99.90;;;;;;5088987;28;20332;-79
2023/05/08 15:08:08;;;;;;;8.95;8.75;;;21.00;99.90;;;;;;5088220;28;20237;-79
2023/05/08 15:10:40;;;;;;;9.32;9.02;;;21.10;99.90;;;;;;5091190;28;20218;-79
2023/05/08 15:13:07;;;;;;;9.48;9.18;;;20.70;99.90;;;;;;5094250;28;20238;-80
2023/05/08 15:15:35;;;;;;;9.30;9.00;;;20.70;99.90;;;;;;5091605;28;20301;-80
2023/05/08 15:18:03;;;;;;;9.30;9.00;;;20.70;99.90;;;;;;5089700;28;20320;-79
2023/05/08 15:20:31;;;;;;;9.07;8.88;;;20.70;99.90;;;;;;5090032;28;20249;-80
2023/05/08 15:23:00;;;;;;;9.50;9.20;;;20.60;99.90;;;;;;5087573;28;20258;-79
2023/05/08 15:25:34;;;;;;;8.77;8.57;;;20.50;99.90;;;;;;5085522;28;20234;-81
2023/05/08 15:28:02;;;;;;;8.52;8.32;;;20.50;99.90;;;;;;5069497;28;20257;-80
2023/05/08 15:30:30;;;;;;;8.65;8.45;;;20.50;99.90;;;;;;5070344;28;20246;-80
2023/05/08 15:32:58;;;;;;;8.88;8.68;;;20.50;99.90;;;;;;5079905;28;20236;-82
2023/05/08 15:35:26;;;;;;;8.98;8.77;;;20.40;99.90;;;;;;5087495;28;20253;-80
2023/05/08 15:37:55;;;;;;;8.48;8.27;;;20.30;99.90;;;;;;5086524;28;20242;-80
2023/05/08 15:40:24;;;;;;;9.10;8.90;;;20.30;99.90;;;;;;5087599;28;20213;-80
2023/05/08 15:42:56;;;;;;;9.60;9.30;;;20.30;99.90;;;;;;5085878;28;20324;-81
2023/05/08 15:45:26;;;;;;;9.05;8.85;;;20.20;99.90;;;;;;5078801;28;20269;-82
2023/05/08 15:47:55;;;;;;;8.95;8.75;;;20.30;99.90;;;;;;5067830;28;20305;-82
2023/05/08 15:50:25;;;;;;;8.90;8.70;;;20.20;99.90;;;;;;5086482;28;20227;-82
2023/05/08 15:52:54;;;;;;;8.93;8.73;;;20.20;99.90;;;;;;5087864;28;20234;-80
2023/05/08 15:55:24;;;;;;;8.85;8.65;;;20.10;99.90;;;;;;5076725;28;20230;-81
2023/05/08 15:57:52;;;;;;;9.00;8.80;;;20.10;99.90;;;;;;5088466;28;20269;-81
2023/05/08 16:00:22;;;;;;;9.38;9.07;;;20.10;99.90;;;;;;5087445;28;20260;-81
2023/05/08 16:02:50;;;;;;;9.60;9.30;;;19.90;99.90;;;;;;5087451;28;20265;-81
2023/05/08 16:05:18;;;;;;;9.60;9.30;;;19.80;99.90;;;;;;5087002;28;20276;-81
2023/05/08 16:07:49;;;;;;;9.57;9.27;;;19.70;99.90;;;;;;5086871;28;20344;-81
2023/05/08 16:10:18;;;;;;;9.60;9.30;;;19.60;99.90;;;;;;5088470;28;20300;-81
2023/05/08 16:12:58;;;;;;;9.50;9.20;;;19.60;99.90;;;;;;5085418;28;20250;-83
2023/05/08 16:15:27;;;;;;;9.60;9.30;;;19.60;99.90;;;;;;5086013;28;20289;-83
2023/05/08 16:17:54;;;;;;;9.40;9.10;;;19.70;99.90;;;;;;5088332;28;20242;-81
2023/05/08 16:20:23;;;;;;;9.40;9.10;;;19.70;99.90;;;;;;5084061;28;20222;-80
2023/05/08 16:22:56;;;;;;;9.55;9.25;;;19.70;99.90;;;;;;5087589;28;20230;-80
2023/05/08 16:25:25;;;;;;;9.30;9.00;;;19.60;99.90;;;;;;5084451;28;20241;-81
2023/05/08 16:27:55;;;;;;;9.30;9.00;;;19.60;99.90;;;;;;5086399;28;20269;-82
2023/05/08 16:30:23;;;;;;;9.20;8.90;;;19.60;99.90;;;;;;5088596;28;20222;-80
2023/05/08 16:32:51;;;;;;;9.50;9.20;;;19.50;99.90;;;;;;5086425;28;20246;-80
2023/05/08 16:35:19;;;;;;;9.20;8.90;;;19.50;99.90;;;;;;5083560;28;21080;-79
2023/05/08 16:37:47;;;;;;;9.30;9.00;;;19.40;99.90;;;;;;5084261;28;20233;-80
2023/05/08 16:40:15;;;;;;;9.50;9.20;;;19.20;99.90;;;;;;5084279;28;20226;-78
2023/05/08 16:42:42;;;;;;;9.40;9.10;;;18.90;99.90;;;;;;5083127;28;20297;-78
2023/05/08 16:45:13;;;;;;;9.85;9.55;;;18.70;99.90;;;;;;5082722;28;20234;-79
2023/05/08 16:47:40;;;;;;;9.57;9.27;;;18.60;99.90;;;;;;5088688;28;20257;-78
2023/05/08 16:50:09;;;;;;;9.60;9.30;;;18.60;99.90;;;;;;5090078;28;21012;-78
2023/05/08 16:52:37;;;;;;;9.75;9.45;;;18.50;99.90;;;;;;5086527;28;20234;-79
2023/05/08 16:55:05;;;;;;;9.35;9.05;;;18.40;99.90;;;;;;5083980;28;20289;-78
2023/05/08 16:57:32;;;;;;;9.50;9.20;;;18.40;99.90;;;;;;5083014;28;20226;-80
2023/05/08 17:00:06;;;;;;;9.60;9.30;;;18.30;99.90;;;;;;5081171;28;20230;-80